KTNU/TNU METAR and TAF weather

Enter ICAO airport designator
Station Type Date Time Source
KTNU METAR 2019/04/18 22:35 UTC NOAA

KTNU 182235Z AUTO 36016G26KT 10SM OVC043 11/03 A2985 RMK AO2


Station Type Date Time Source
KTNU Decoded METAR 2019/04/18 22:35 UTC NOAA

Newton Municipal, IA, United States (KTNU) 41-41N 093-01W
Apr 18, 2019 - 06:35 PM EDT / 2019.04.18 2235 UTC
Wind: from the N (360 degrees) at 18 MPH (16 KT) gusting to 30 MPH (26 KT):0
Visibility: 10 mile(s):0
Sky conditions: overcast
Temperature: 51 F (11 C)
Dew Point: 37 F (3 C)
Relative Humidity: 57%
Pressure (altimeter): 29.85 in. Hg (1010 hPa)
ob: KTNU 182235Z AUTO 36016G26KT 10SM OVC043 11/03 A2985 RMK AO2
cycle: 22

Station Type Date Time Source
KTNU TAF UTC NOAA

Error!

Example: see airport list